createdAt,value
2022-12-08T00:01:10.514Z,10.70
2022-12-08T00:04:55.381Z,11.10
2022-12-08T00:08:55.626Z,10.80
2022-12-08T00:12:36.552Z,11.30
2022-12-08T00:16:01.482Z,12.30
2022-12-08T00:19:55.172Z,12.90
2022-12-08T00:23:17.255Z,12.20
2022-12-08T00:26:54.700Z,10.60
2022-12-08T00:30:51.209Z,11.60
2022-12-08T00:34:15.220Z,11.30
2022-12-08T00:37:52.344Z,9.50
2022-12-08T00:41:48.041Z,9.50
2022-12-08T00:45:29.586Z,10.60
2022-12-08T00:48:51.705Z,9.80
2022-12-08T00:52:48.060Z,9.10
2022-12-08T00:56:10.343Z,10.70
2022-12-08T01:00:07.427Z,11.10
2022-12-08T01:03:48.907Z,13.80
2022-12-08T01:07:29.962Z,12.80
2022-12-08T01:10:52.567Z,13.60
2022-12-08T01:14:29.644Z,11.40
2022-12-08T01:18:27.547Z,11.00
2022-12-08T01:21:49.209Z,10.30
2022-12-08T01:25:27.107Z,10.50
2022-12-08T01:29:23.814Z,11.00
2022-12-08T01:33:04.945Z,10.90
2022-12-08T01:36:29.162Z,10.40
2022-12-08T01:40:23.316Z,12.30
2022-12-08T01:43:56.337Z,11.90
2022-12-08T01:47:46.552Z,11.60
2022-12-08T01:51:28.060Z,9.60
2022-12-08T01:54:56.245Z,9.80
2022-12-08T01:58:38.486Z,10.00
2022-12-08T02:02:05.507Z,10.40
2022-12-08T02:06:03.254Z,9.50
2022-12-08T02:09:25.510Z,11.00
2022-12-08T02:13:06.355Z,9.30
2022-12-08T02:16:47.105Z,9.60
2022-12-08T02:20:30.449Z,10.40
2022-12-08T02:24:26.546Z,11.80
2022-12-08T02:28:04.476Z,9.10
2022-12-08T02:32:12.556Z,10.60
2022-12-08T02:36:04.834Z,9.90
2022-12-08T02:39:55.844Z,10.10
2022-12-08T02:43:37.549Z,8.90
2022-12-08T02:47:34.269Z,10.30
2022-12-08T02:50:56.689Z,9.20
2022-12-08T02:54:36.468Z,10.40
2022-12-08T02:58:40.278Z,10.00
2022-12-08T03:02:12.776Z,8.20
2022-12-08T03:06:00.903Z,11.00
2022-12-08T03:09:50.581Z,11.40
2022-12-08T03:13:15.977Z,10.70
2022-12-08T03:17:10.637Z,12.70
2022-12-08T03:20:35.052Z,11.70
2022-12-08T03:24:34.342Z,12.00
2022-12-08T03:27:56.652Z,11.30
2022-12-08T03:32:06.291Z,10.50
2022-12-08T03:35:47.703Z,11.60
2022-12-08T03:39:09.445Z,11.90
2022-12-08T03:43:06.193Z,16.30
2022-12-08T03:50:24.493Z,13.10
2022-12-08T03:53:47.312Z,16.70
2022-12-08T03:57:43.892Z,13.80
2022-12-08T04:01:05.766Z,14.20
2022-12-08T04:04:44.416Z,13.00
2022-12-08T04:08:21.069Z,12.50
2022-12-08T04:11:58.553Z,12.80
2022-12-08T04:15:36.402Z,10.90
2022-12-08T04:19:13.905Z,12.60
2022-12-08T04:22:51.711Z,11.50
2022-12-08T04:26:49.210Z,10.90
2022-12-08T04:30:11.469Z,12.30
2022-12-08T04:33:48.732Z,11.30
2022-12-08T04:37:27.817Z,10.80
2022-12-08T04:41:22.728Z,11.80
2022-12-08T04:44:44.815Z,10.60
2022-12-08T04:48:22.174Z,11.00
2022-12-08T04:51:59.901Z,11.00
2022-12-08T04:55:43.965Z,11.30
2022-12-08T04:59:34.072Z,12.20
2022-12-08T05:03:16.483Z,12.80
2022-12-08T05:06:38.341Z,14.00
2022-12-08T05:10:15.937Z,13.20
2022-12-08T05:13:53.533Z,13.70
2022-12-08T05:17:50.161Z,15.40
2022-12-08T05:21:12.516Z,14.20
2022-12-08T05:25:08.427Z,12.60
2022-12-08T05:28:45.832Z,14.30
2022-12-08T05:32:08.203Z,13.50
2022-12-08T05:35:45.891Z,10.80
2022-12-08T05:39:23.445Z,11.20
2022-12-08T05:43:01.159Z,13.00
2022-12-08T05:46:38.725Z,12.10
2022-12-08T05:50:35.435Z,12.30
2022-12-08T05:54:00.298Z,14.50
2022-12-08T05:57:36.912Z,16.30
2022-12-08T06:01:28.535Z,16.00
2022-12-08T06:05:11.267Z,17.50
2022-12-08T06:08:33.165Z,18.50
2022-12-08T06:12:29.894Z,20.70
2022-12-08T06:16:10.635Z,16.90
2022-12-08T06:19:51.703Z,15.10
2022-12-08T06:23:13.649Z,13.80
2022-12-08T06:27:10.357Z,15.50
2022-12-08T06:30:50.927Z,15.90
2022-12-08T06:34:12.873Z,15.20
2022-12-08T06:37:51.841Z,15.40
2022-12-08T06:41:28.185Z,16.90
2022-12-08T06:45:06.519Z,16.20
2022-12-08T06:48:43.739Z,14.10
2022-12-08T06:52:21.188Z,13.30
2022-12-08T06:56:00.048Z,16.30
2022-12-08T06:59:36.627Z,20.10
2022-12-08T07:03:14.908Z,18.60
2022-12-08T07:06:51.876Z,18.70
2022-12-08T07:10:48.592Z,18.50
2022-12-08T07:14:29.965Z,16.10
2022-12-08T07:18:11.566Z,15.20
2022-12-08T07:21:52.314Z,14.80
2022-12-08T07:25:14.312Z,16.20
2022-12-08T07:28:51.698Z,20.10
2022-12-08T07:32:48.647Z,20.50
2022-12-08T07:36:10.674Z,19.40
2022-12-08T07:40:08.648Z,21.60
2022-12-08T07:43:49.381Z,17.40
2022-12-08T07:47:30.433Z,17.70
2022-12-08T07:51:00.268Z,20.10
2022-12-08T07:54:49.113Z,16.70
2022-12-08T07:58:11.565Z,16.00
2022-12-08T08:02:25.560Z,15.10
2022-12-08T08:05:50.061Z,33.10
2022-12-08T08:09:45.100Z,20.70
2022-12-08T08:13:07.031Z,15.80
2022-12-08T08:16:47.494Z,13.20
2022-12-08T08:20:22.763Z,15.00
2022-12-08T08:24:00.189Z,14.90
2022-12-08T08:27:56.595Z,15.70
2022-12-08T08:31:24.828Z,18.40
2022-12-08T08:35:16.382Z,15.20
2022-12-08T08:38:42.879Z,12.70
2022-12-08T08:42:34.567Z,13.80
2022-12-08T08:46:00.488Z,15.00
2022-12-08T08:49:34.160Z,16.20
2022-12-08T08:53:11.926Z,12.70
2022-12-08T08:56:49.328Z,12.30
2022-12-08T09:00:27.152Z,11.50
2022-12-08T09:04:04.994Z,12.90
2022-12-08T09:08:01.468Z,12.80
2022-12-08T09:11:23.706Z,15.40
2022-12-08T09:15:20.223Z,14.00
2022-12-08T09:18:42.015Z,13.20
2022-12-08T09:22:38.750Z,12.70
2022-12-08T09:26:01.011Z,16.30
2022-12-08T09:29:38.646Z,16.00
2022-12-08T09:33:17.838Z,16.30
2022-12-08T09:37:12.919Z,14.10
2022-12-08T09:40:54.710Z,16.70
2022-12-08T09:44:43.621Z,15.10
2022-12-08T09:48:38.557Z,12.60
2022-12-08T09:52:31.051Z,13.00
2022-12-08T09:56:22.120Z,11.40
2022-12-08T09:59:51.598Z,12.40
2022-12-08T10:03:28.368Z,13.60
2022-12-08T10:07:27.539Z,15.50
2022-12-08T10:11:04.585Z,16.10
2022-12-08T10:14:38.260Z,17.60
2022-12-08T10:18:28.466Z,13.70
2022-12-08T10:21:51.387Z,16.60
2022-12-08T10:25:57.203Z,21.00
2022-12-08T10:29:39.856Z,40.10
2022-12-08T10:33:01.625Z,20.70
2022-12-08T10:37:00.047Z,19.60
2022-12-08T10:40:45.824Z,13.60
2022-12-08T10:44:09.815Z,12.10
2022-12-08T10:48:19.197Z,12.90
2022-12-08T10:51:43.466Z,11.60
2022-12-08T10:55:43.047Z,10.10
2022-12-08T10:59:19.525Z,11.60
2022-12-08T11:03:03.999Z,12.00
2022-12-08T11:06:46.923Z,13.60
2022-12-08T11:10:17.857Z,10.70
2022-12-08T11:14:15.001Z,12.70
2022-12-08T11:17:39.671Z,11.80
2022-12-08T11:21:18.583Z,9.60
2022-12-08T11:25:26.009Z,11.10
2022-12-08T11:28:48.173Z,18.20
2022-12-08T11:32:50.390Z,15.00
2022-12-08T11:36:34.746Z,23.90
2022-12-08T11:40:32.004Z,12.20
2022-12-08T11:44:18.447Z,18.70
2022-12-08T11:47:52.609Z,16.50
2022-12-08T11:52:21.555Z,20.50
2022-12-08T11:56:12.456Z,17.90
2022-12-08T11:59:56.729Z,15.00
2022-12-08T12:03:43.985Z,12.00
2022-12-08T12:07:08.564Z,12.20
2022-12-08T12:11:02.079Z,13.00
2022-12-08T12:15:12.199Z,11.60
2022-12-08T12:18:46.414Z,19.40
2022-12-08T12:22:36.345Z,12.10
2022-12-08T12:26:20.872Z,9.20
2022-12-08T12:30:06.119Z,11.70
2022-12-08T12:33:49.125Z,11.20
2022-12-08T12:37:41.097Z,11.30
2022-12-08T12:41:28.366Z,12.00
2022-12-08T12:45:12.303Z,9.10
2022-12-08T12:48:35.031Z,8.10
2022-12-08T12:52:15.774Z,10.40
2022-12-08T12:56:11.768Z,7.60
2022-12-08T12:59:55.530Z,7.60
2022-12-08T13:03:18.193Z,9.10
2022-12-08T13:07:24.076Z,7.60
2022-12-08T13:11:09.108Z,8.10
2022-12-08T13:14:51.224Z,8.60
2022-12-08T13:18:41.930Z,11.60
2022-12-08T13:22:04.075Z,9.20
2022-12-08T13:25:44.172Z,8.30
2022-12-08T13:29:38.911Z,11.60
2022-12-08T13:33:18.657Z,13.30
2022-12-08T13:37:13.108Z,10.90
2022-12-08T13:40:37.696Z,8.90
2022-12-08T13:50:05.829Z,14.30
2022-12-08T13:57:06.818Z,8.00
2022-12-08T14:01:02.435Z,7.50
2022-12-08T14:08:59.942Z,14.40
2022-12-08T14:12:34.042Z,9.40
2022-12-08T14:15:56.825Z,9.50
2022-12-08T14:19:35.152Z,7.50
2022-12-08T14:23:34.478Z,7.20
2022-12-08T14:27:01.821Z,9.70
2022-12-08T14:30:55.169Z,9.70
2022-12-08T14:34:17.420Z,8.80
2022-12-08T14:38:16.247Z,11.40
2022-12-08T14:41:39.432Z,10.10
2022-12-08T14:45:46.052Z,10.10
2022-12-08T14:49:32.086Z,11.10
2022-12-08T14:53:17.166Z,10.40
2022-12-08T14:57:01.044Z,10.80
2022-12-08T15:00:23.914Z,40.80
2022-12-08T15:04:22.543Z,30.90
2022-12-08T15:07:47.451Z,20.50
2022-12-08T15:11:41.738Z,19.00
2022-12-08T15:15:23.512Z,15.90
2022-12-08T15:18:45.602Z,13.90
2022-12-08T15:22:42.718Z,16.80
2022-12-08T15:26:26.182Z,21.10
2022-12-08T15:29:48.778Z,15.50
2022-12-08T15:33:27.101Z,12.70
2022-12-08T15:37:04.624Z,12.60
2022-12-08T15:40:41.233Z,12.00
2022-12-08T15:44:38.292Z,13.70
2022-12-08T15:48:00.907Z,15.30
2022-12-08T15:51:37.852Z,14.40
2022-12-08T15:55:38.670Z,19.30
2022-12-08T15:59:01.687Z,19.00
2022-12-08T16:03:22.945Z,18.10
2022-12-08T16:07:21.321Z,18.60
2022-12-08T16:11:56.439Z,18.80
2022-12-08T16:19:22.178Z,18.10
2022-12-08T16:23:26.336Z,15.80
2022-12-08T16:30:46.365Z,21.90
2022-12-08T16:34:43.007Z,27.80
2022-12-08T16:38:24.317Z,31.30
2022-12-08T16:42:23.845Z,22.40
2022-12-08T16:46:05.023Z,18.50
2022-12-08T16:49:27.126Z,19.00
2022-12-08T16:53:23.756Z,20.20
2022-12-08T16:57:04.931Z,19.70
2022-12-08T17:00:50.185Z,21.80
2022-12-08T17:04:32.253Z,21.40
2022-12-08T17:07:55.221Z,18.70
2022-12-08T17:11:51.768Z,23.00
2022-12-08T17:15:32.606Z,20.70
2022-12-08T17:19:14.639Z,21.40
2022-12-08T17:22:36.828Z,19.90
2022-12-08T17:26:14.880Z,23.20
2022-12-08T17:30:14.905Z,26.20
2022-12-08T17:33:58.999Z,19.90
2022-12-08T17:37:39.787Z,20.70
2022-12-08T17:41:20.507Z,24.60
2022-12-08T17:44:42.569Z,23.10
2022-12-08T17:48:20.120Z,26.00
2022-12-08T17:52:16.666Z,24.10
2022-12-08T17:55:40.897Z,25.70
2022-12-08T17:59:16.639Z,25.70
2022-12-08T18:02:54.834Z,42.00
2022-12-08T18:06:51.096Z,26.60
2022-12-08T18:10:13.223Z,30.70
2022-12-08T18:13:52.442Z,28.00
2022-12-08T18:17:47.252Z,23.50
2022-12-08T18:21:28.326Z,30.40
2022-12-08T18:25:11.639Z,26.00
2022-12-08T18:28:34.164Z,24.90
2022-12-08T18:32:11.189Z,21.10
2022-12-08T18:35:48.994Z,20.50
2022-12-08T18:39:45.357Z,22.40
2022-12-08T18:43:26.693Z,22.80
2022-12-08T18:47:07.351Z,31.00
2022-12-08T18:50:48.385Z,23.60
2022-12-08T18:54:11.892Z,19.60
2022-12-08T18:57:48.593Z,82.40
2022-12-08T19:01:25.769Z,40.70
2022-12-08T19:05:22.436Z,31.40
2022-12-08T19:09:06.360Z,43.00
2022-12-08T19:12:50.245Z,36.50
2022-12-08T19:16:13.118Z,29.70
2022-12-08T19:20:09.982Z,29.20
2022-12-08T19:23:32.199Z,31.80
2022-12-08T19:27:09.716Z,39.20
2022-12-08T19:30:47.330Z,45.60
2022-12-08T19:34:27.872Z,43.80
2022-12-08T19:38:03.078Z,33.60
2022-12-08T19:42:17.820Z,32.30
2022-12-08T19:45:39.953Z,29.60
2022-12-08T19:49:17.709Z,53.50
2022-12-08T19:53:14.845Z,37.20
2022-12-08T19:56:36.948Z,39.70
2022-12-08T20:00:14.904Z,38.80
2022-12-08T20:03:52.189Z,77.50
2022-12-08T20:07:49.153Z,49.10
2022-12-08T20:11:10.727Z,36.00
2022-12-08T20:15:09.719Z,29.90
2022-12-08T20:18:50.323Z,31.90
2022-12-08T20:22:12.167Z,23.90
2022-12-08T20:25:49.952Z,24.30
2022-12-08T20:29:27.517Z,25.70
2022-12-08T20:33:05.626Z,28.50
2022-12-08T20:37:01.998Z,36.00
2022-12-08T20:40:43.486Z,50.30
2022-12-08T20:44:24.073Z,32.40
2022-12-08T20:48:05.404Z,113.40
2022-12-08T20:51:31.898Z,66.90
2022-12-08T20:55:26.677Z,26.30
2022-12-08T20:59:07.855Z,30.10
2022-12-08T21:02:33.292Z,27.90
2022-12-08T21:06:27.065Z,28.10
2022-12-08T21:09:47.490Z,25.50
2022-12-08T21:13:26.148Z,22.50
2022-12-08T21:17:22.590Z,21.40
2022-12-08T21:20:45.508Z,27.30
2022-12-08T21:24:41.766Z,23.90
2022-12-08T21:28:06.220Z,19.70
2022-12-08T21:31:41.295Z,21.10
2022-12-08T21:35:18.959Z,20.80
2022-12-08T21:38:58.289Z,21.20
2022-12-08T21:42:46.358Z,20.80
2022-12-08T21:46:31.261Z,21.90
2022-12-08T21:49:53.359Z,21.50
2022-12-08T21:53:31.099Z,23.60
2022-12-08T21:57:27.865Z,23.50
2022-12-08T22:00:50.133Z,22.00
2022-12-08T22:04:47.422Z,17.20
2022-12-08T22:08:12.856Z,16.30
2022-12-08T22:12:06.048Z,16.00
2022-12-08T22:15:58.881Z,20.10
2022-12-08T22:19:20.912Z,18.00
2022-12-08T22:22:58.611Z,13.80
2022-12-08T22:26:36.169Z,16.70
2022-12-08T22:30:14.122Z,13.80
2022-12-08T22:33:51.783Z,14.50
2022-12-08T22:37:29.365Z,15.20
2022-12-08T22:41:07.077Z,12.90
2022-12-08T22:45:04.026Z,15.60
2022-12-08T22:48:26.288Z,15.00
2022-12-08T22:52:22.845Z,13.40
2022-12-08T22:56:05.115Z,16.20
2022-12-08T22:59:30.335Z,17.90
2022-12-08T23:03:23.750Z,19.70
2022-12-08T23:06:45.833Z,16.80
2022-12-08T23:10:44.729Z,18.40
2022-12-08T23:14:25.320Z,18.10
2022-12-08T23:17:47.637Z,19.30
2022-12-08T23:21:25.437Z,17.90
2022-12-08T23:25:21.705Z,19.30
2022-12-08T23:28:43.841Z,20.50
2022-12-08T23:32:21.744Z,20.50
2022-12-08T23:35:59.226Z,19.10
2022-12-08T23:39:55.695Z,22.20
2022-12-08T23:43:17.690Z,21.80
2022-12-08T23:46:55.396Z,21.80
2022-12-08T23:50:52.716Z,22.50
2022-12-08T23:54:15.037Z,20.90
2022-12-08T23:57:52.361Z,23.50
